Kezdőlap
METAR-TAF:

METAR-TAF

Repülőterek :

Rochester International Airport

Rochester, Minnesota, Amerikai Egyesült Államok

földrajzi szélesség: 43-54-15N, földrajzi hosszúság: 092-29-30W, magasság: 401 m

Jelenlegi meteorológiai megfigyelések

A jelentés 1 órával és 3 perccel ezelõtt készült, 09:54 UTC
Északi szél 4 kt
Hőmérséklet -2°C
Páratartalom 93%
Légköri nyomás 1018 hPa
Látótávolság: 16.1 km
Derült ég
ismeretlen

METAR: KRST 230954Z AUTO 35004KT 10SM UP CLR M02/M03 A3005 RMK AO2 UPB46 SLP187 P0000 T10171028

Idő: 05:57 (10:57 UTC)

Előrejelzés

A jelentés 5 órával és 37 perccel ezelõtt készült, 05:20 UTC
Az előrejelzés 23-én 06 óra UTC és 24-én 06 óra UTC között érvényes
Északi szél 4 kt
Látótávolság: 10 km
Kevés felhő 20000 lábon
23-én 1500 órától UTC szerint
Keleti szél 6 kt
Látótávolság: 10 km
Kevés felhő 20000 lábon

TAF: KRST 230520Z 2306/2406 36004KT P6SM FEW200 FM231500 08006KT P6SM FEW200

Meteorológiai megfigyelések és előrejelzések több, mint 4000 repülőtéren (METAR és TAF jelentéseket).

A térképen piros és sárga pontok jelzik az elérhető meteorológiai állomásokat.

Mozgassa az egeret a pont fölött, hogy megjelenjen az állomás neve.

Azután kattintson az időjárási megfigyelések és előrejelzések megtekintéséhez.

A térkép megváltoztatása: kattintson a fekete keresztel jelölt zöld gombra ráközelítéshez, a vonallal jelölt zöld gombra távolításhoz, vagy a zöld nyilakra a szomszédos térképek eléréséhez.


METAR-TAF: